フィレンツェ の空港の天気 - METARとTAF

フィレンツェ・ペレトラ空港 ( LIRQ / FLR ) - イタリア フィレンツェ
飛行場実況気象(Metar)
観測時間04/27 18:20 CEST (04/27 16:20 UTC)
風向・風速南西 3m/s
視程2000m
天気現象強い雨 もや
全天の4割程度の雲 雲底高度 610m
全天の8割程度の雲 雲底高度 1070m
気温16℃
湿度82%
気圧1007hPa
METARLIRQ 271620Z 22006KT 200V260 2000 +RA BR SCT020 BKN035 16/13 Q1007
過去の天気等 Google飛行場航空写真 Wunderground天気予報

過去48時間のMETAR

飛行場予報(TAF)
発表時間: 4/27 13:00 CEST (4/27 11:00 UTC)
予報対象時間: 27日14時 CEST ~ 28日14時 CEST
風向・風速南西 6m/s
視程10km以上
全天の8割程度の雲 雲底高度 910m
27日14時 CEST ~ 28日2時 CEST に一時的に
視程4,000m
天気現象しゅう雨
TAF LIRQ 271100Z 2712/2812 23012KT 9999 BKN030
TEMPO 2712/2724 4000 SHRA